createdAt,value
2023-05-19T00:00:12.864Z,100468.52
2023-05-19T00:23:10.808Z,100480.67
2023-05-19T00:33:29.828Z,100480.78
2023-05-19T00:36:13.334Z,100476.64
2023-05-19T00:39:08.909Z,100479.17
2023-05-19T00:41:59.713Z,100479.42
2023-05-19T00:45:18.769Z,100476.77
2023-05-19T00:48:15.274Z,100467.61
2023-05-19T00:51:14.655Z,100478.42
2023-05-19T00:54:03.135Z,100478.10
2023-05-19T00:56:36.920Z,100483.52
2023-05-19T01:00:17.948Z,100485.33
2023-05-19T01:03:15.977Z,100485.64
2023-05-19T01:16:32.496Z,100484.56
2023-05-19T01:19:37.427Z,100480.72
2023-05-19T01:22:43.130Z,100479.09
2023-05-19T01:25:29.539Z,100479.30
2023-05-19T01:28:30.775Z,100460.84
2023-05-19T01:31:02.230Z,100478.46
2023-05-19T01:33:33.669Z,100470.19
2023-05-19T01:36:03.240Z,100478.57
2023-05-19T01:38:31.141Z,100475.91
2023-05-19T01:40:59.023Z,100479.25
2023-05-19T01:43:27.469Z,100479.23
2023-05-19T01:45:55.463Z,100480.79
2023-05-19T01:48:23.229Z,100482.04
2023-05-19T01:50:51.204Z,100469.73
2023-05-19T01:53:18.846Z,100476.90
2023-05-19T01:55:48.803Z,100477.56
2023-05-19T01:58:44.209Z,100483.95
2023-05-19T02:01:36.825Z,100472.11
2023-05-19T02:04:42.968Z,100483.85
2023-05-19T02:07:18.971Z,100486.50
2023-05-19T02:10:22.382Z,100484.77
2023-05-19T02:12:51.285Z,100488.63
2023-05-19T02:15:31.552Z,100483.26
2023-05-19T02:18:01.541Z,100493.70
2023-05-19T02:20:28.961Z,100497.02
2023-05-19T02:22:58.125Z,100496.50
2023-05-19T02:25:27.598Z,100502.59
2023-05-19T02:27:55.106Z,100502.79
2023-05-19T02:30:23.406Z,100492.42
2023-05-19T02:32:50.727Z,100507.89
2023-05-19T02:35:18.317Z,100494.61
2023-05-19T02:37:51.252Z,100507.23
2023-05-19T02:40:19.053Z,100508.08
2023-05-19T02:42:50.036Z,100521.17
2023-05-19T02:45:21.114Z,100507.54
2023-05-19T02:47:48.557Z,100510.61
2023-05-19T02:50:21.471Z,100532.69
2023-05-19T02:52:57.122Z,100535.09
2023-05-19T02:55:30.355Z,100532.98
2023-05-19T02:58:11.075Z,100528.88
2023-05-19T03:00:39.109Z,100529.33
2023-05-19T03:03:12.532Z,100526.79
2023-05-19T03:05:40.283Z,100538.85
2023-05-19T03:08:08.094Z,100549.39
2023-05-19T03:10:39.278Z,100542.77
2023-05-19T03:13:06.931Z,100538.91
2023-05-19T03:15:37.772Z,100542.27
2023-05-19T03:18:05.789Z,100555.16
2023-05-19T03:20:34.162Z,100552.23
2023-05-19T03:23:06.435Z,100554.55
2023-05-19T03:25:38.195Z,100553.45
2023-05-19T03:28:06.087Z,100554.19
2023-05-19T03:30:34.332Z,100551.71
2023-05-19T03:33:10.113Z,100553.48
2023-05-19T03:35:37.998Z,100559.14
2023-05-19T03:38:06.209Z,100552.53
2023-05-19T03:40:34.535Z,100554.61
2023-05-19T03:43:07.332Z,100556.02
2023-05-19T03:45:41.185Z,100556.92
2023-05-19T03:48:30.969Z,100560.87
2023-05-19T04:03:58.263Z,100555.66
2023-05-19T04:07:03.569Z,100556.65
2023-05-19T04:10:00.984Z,100558.06
2023-05-19T04:17:17.570Z,100557.59
2023-05-19T04:20:03.505Z,100559.00
2023-05-19T04:22:43.646Z,100555.50
2023-05-19T04:25:50.517Z,100561.15
2023-05-19T04:29:24.260Z,100556.67
2023-05-19T04:31:58.284Z,100562.55
2023-05-19T04:34:56.606Z,100553.39
2023-05-19T04:51:43.472Z,100568.79
2023-05-19T04:54:18.078Z,100572.98
2023-05-19T04:57:52.401Z,100569.24
2023-05-19T05:04:51.570Z,100588.47
2023-05-19T05:12:27.049Z,100588.60
2023-05-19T05:15:32.358Z,100592.38
2023-05-19T05:22:24.465Z,100592.00
2023-05-19T05:26:20.811Z,100597.18
2023-05-19T05:29:11.940Z,100597.85
2023-05-19T10:50:22.266Z,100528.05
2023-05-19T11:12:47.305Z,100523.96
2023-05-19T11:21:01.475Z,100512.41
2023-05-19T11:24:35.536Z,100518.84
2023-05-19T12:32:48.847Z,100468.25
2023-05-19T12:35:57.115Z,100484.02
2023-05-19T12:40:01.921Z,100478.88
2023-05-19T12:53:52.846Z,100472.11
2023-05-19T13:01:12.385Z,100467.58
2023-05-19T15:51:45.982Z,100466.91
2023-05-19T15:55:30.912Z,100472.50
2023-05-19T16:32:24.333Z,100515.89
2023-05-19T19:30:28.841Z,100669.36
2023-05-19T19:33:36.930Z,100659.52
2023-05-19T19:36:56.350Z,100674.02
2023-05-19T19:39:47.524Z,100674.06
2023-05-19T19:42:50.472Z,100680.14
2023-05-19T19:46:06.904Z,100681.02
2023-05-19T19:58:15.636Z,100691.80
2023-05-19T20:09:49.645Z,100682.94
2023-05-19T20:13:26.495Z,100684.76
2023-05-19T20:16:04.535Z,100684.09
2023-05-19T20:18:39.788Z,100684.73
2023-05-19T20:21:26.620Z,100683.61
2023-05-19T20:24:53.378Z,100685.81
2023-05-19T20:28:32.721Z,100691.33
2023-05-19T20:32:43.260Z,100687.17
2023-05-19T20:36:25.744Z,100693.52
2023-05-19T20:43:42.996Z,100695.23
2023-05-19T20:51:40.114Z,100694.65
2023-05-19T20:55:01.538Z,100702.68
2023-05-19T20:57:48.902Z,100700.17
2023-05-19T21:00:27.053Z,100703.05
2023-05-19T21:03:08.014Z,100698.73
2023-05-19T21:05:43.316Z,100702.73
2023-05-19T21:13:24.315Z,100703.00
2023-05-19T21:16:15.956Z,100699.70
2023-05-19T21:23:13.652Z,100705.27
2023-05-19T21:26:14.888Z,100705.93
2023-05-19T21:28:57.412Z,100705.36
2023-05-19T21:31:56.073Z,100707.20
2023-05-19T21:34:31.574Z,100703.24
2023-05-19T21:37:14.710Z,100700.99
2023-05-19T21:39:50.470Z,100701.67
2023-05-19T21:42:52.966Z,100700.19
2023-05-19T21:45:45.891Z,100711.75
2023-05-19T21:48:44.726Z,100707.89
2023-05-19T21:51:19.187Z,100705.20
2023-05-19T21:54:03.941Z,100707.65
2023-05-19T21:57:03.004Z,100709.56
2023-05-19T21:59:50.453Z,100713.15
2023-05-19T22:02:35.325Z,100709.73
2023-05-19T22:05:23.840Z,100695.80
2023-05-19T22:08:07.270Z,100706.99
2023-05-19T22:10:56.095Z,100709.27
2023-05-19T22:13:54.801Z,100710.16
2023-05-19T22:16:44.528Z,100710.21
2023-05-19T22:28:11.590Z,100717.64
2023-05-19T22:34:33.414Z,100716.64
2023-05-19T22:37:31.792Z,100725.25
2023-05-19T22:41:29.332Z,100722.96
2023-05-19T22:44:11.240Z,100733.19
2023-05-19T22:47:12.820Z,100736.38
2023-05-19T22:49:49.255Z,100732.52
2023-05-19T22:52:45.408Z,100736.30
2023-05-19T22:55:46.929Z,100739.02
2023-05-19T22:58:46.026Z,100738.38
2023-05-19T23:01:25.517Z,100737.97
2023-05-19T23:03:57.904Z,100737.66
2023-05-19T23:06:40.628Z,100739.91
2023-05-19T23:09:24.858Z,100738.84
2023-05-19T23:12:06.385Z,100736.78
2023-05-19T23:15:20.545Z,100737.06
2023-05-19T23:17:58.078Z,100733.76
2023-05-19T23:24:41.610Z,100717.50
2023-05-19T23:27:47.077Z,100709.26
2023-05-19T23:30:22.786Z,100721.17
2023-05-19T23:33:02.274Z,100709.98
2023-05-19T23:36:21.170Z,100714.85
2023-05-19T23:39:05.554Z,100716.71
2023-05-19T23:41:46.526Z,100711.93
2023-05-19T23:44:37.377Z,100714.92
2023-05-19T23:48:26.891Z,100718.19
2023-05-19T23:51:04.907Z,100715.73
2023-05-19T23:53:38.907Z,100719.16
2023-05-19T23:56:10.875Z,100727.10
2023-05-19T23:58:45.978Z,100727.38
